Impacts METAR Board
IDs:

KT74 - Taylor Muni, TX, US

Updated at: 0100 UTC 15 Aug 2020
Potential Impact None Slight Moderate High
Time 14/13Z 14/14Z 14/15Z 14/16Z 14/17Z 14/18Z 14/19Z 14/20Z 14/21Z 14/22Z 14/23Z 15/00Z 15/01Z
Temp78 82 87 90 93 96 99 100 102 103 102 101 98
Dewpt74 74 72 71 70 67 64 62 63 60 62 59 60
Altim29.95 29.96 29.96 29.96 29.95 29.93 29.91 29.89 29.86 29.84 29.83 29.82 29.83
VIS10 10 10 10 10 10 10 10 10 10 10 10 10
CIG-- -- -- -- -- -- -- -- -- -- -- -- --
CoverCLRCLRCLRCLRCLRCLRCLRCLRCLRCLRCLRCLRCLR
FltCatVFRVFRVFRVFRVFRVFRVFRVFRVFRVFRVFRVFRVFR
WX--------------------------
WDir200230230200220180190190200200190190180
WSpd7 10 10 13 11 11 8 9 7 8 10 12 8
WGst-- -- -- 17 15 16 -- 14 -- -- -- -- --
Raw hourly METARs
KT74 141255Z AUTO 20007KT 10SM CLR 26/23 A2995 RMK AO2 T02570233
KT74 141355Z AUTO 23010KT 10SM CLR 28/23 A2996 RMK AO2 T02760231
KT74 141455Z AUTO 23010KT 10SM CLR 30/22 A2996 RMK AO2 T03040221
KT74 141555Z AUTO 20013G17KT 10SM CLR 32/22 A2996 RMK AO2 T03220218
KT74 141655Z AUTO 22011G15KT 10SM CLR 34/21 A2995 RMK AO2 T03400212
KT74 141755Z AUTO 18011G16KT 10SM CLR 36/20 A2993 RMK AO2 T03560197 10359 20247
KT74 141855Z AUTO 19008KT 10SM CLR 37/18 A2991 RMK AO2 T03730175
KT74 141955Z AUTO 19009G14KT 10SM CLR 38/17 A2989 RMK AO2 T03800169
KT74 142055Z AUTO 20007KT 170V230 10SM CLR 39/17 A2986 RMK AO2 T03870172
KT74 142155Z AUTO 20008KT 10SM CLR 39/15 A2984 RMK AO2 T03920153
KT74 142255Z AUTO 19010KT 10SM CLR 39/16 A2983 RMK AO2 T03890164
KT74 142355Z AUTO 19012KT 10SM CLR 38/15 A2982 RMK AO2 T03820150 10397 20349 403970247
KT74 150055Z AUTO 18008KT 10SM CLR 37/16 A2983 RMK AO2 T03650156